sensor_id;sensor_type;location;lat;lon;timestamp;P1;durP1;ratioP1;P2;durP2;ratioP2
10122;SDS011;5101;49.038;8.710;2023-12-22T00:02:23;5.70;;;1.10;;
10122;SDS011;5101;49.038;8.710;2023-12-22T00:04:50;2.47;;;0.98;;
10122;SDS011;5101;49.038;8.710;2023-12-22T00:07:16;2.75;;;0.70;;
10122;SDS011;5101;49.038;8.710;2023-12-22T00:09:41;3.10;;;0.82;;
10122;SDS011;5101;49.038;8.710;2023-12-22T00:12:07;4.53;;;1.30;;
10122;SDS011;5101;49.038;8.710;2023-12-22T00:14:32;4.20;;;1.00;;
10122;SDS011;5101;49.038;8.710;2023-12-22T00:16:58;3.15;;;0.90;;
10122;SDS011;5101;49.038;8.710;2023-12-22T00:19:23;3.13;;;1.08;;
10122;SDS011;5101;49.038;8.710;2023-12-22T00:21:49;3.17;;;1.00;;
10122;SDS011;5101;49.038;8.710;2023-12-22T00:24:15;4.53;;;1.13;;
10122;SDS011;5101;49.038;8.710;2023-12-22T00:26:40;3.42;;;1.05;;
10122;SDS011;5101;49.038;8.710;2023-12-22T00:29:06;6.18;;;1.10;;
10122;SDS011;5101;49.038;8.710;2023-12-22T00:31:31;3.55;;;0.88;;
10122;SDS011;5101;49.038;8.710;2023-12-22T00:33:57;2.25;;;0.80;;
10122;SDS011;5101;49.038;8.710;2023-12-22T00:36:22;2.90;;;0.68;;
10122;SDS011;5101;49.038;8.710;2023-12-22T00:38:49;2.58;;;0.57;;
10122;SDS011;5101;49.038;8.710;2023-12-22T00:41:15;3.38;;;0.80;;
10122;SDS011;5101;49.038;8.710;2023-12-22T00:43:41;1.77;;;0.57;;
10122;SDS011;5101;49.038;8.710;2023-12-22T00:46:06;2.33;;;0.90;;
10122;SDS011;5101;49.038;8.710;2023-12-22T00:48:32;4.43;;;0.77;;
10122;SDS011;5101;49.038;8.710;2023-12-22T00:50:57;2.65;;;0.65;;
10122;SDS011;5101;49.038;8.710;2023-12-22T00:53:23;1.80;;;0.57;;
10122;SDS011;5101;49.038;8.710;2023-12-22T00:55:48;2.40;;;0.80;;
10122;SDS011;5101;49.038;8.710;2023-12-22T00:58:14;4.72;;;0.70;;
10122;SDS011;5101;49.038;8.710;2023-12-22T01:00:39;3.57;;;0.90;;
10122;SDS011;5101;49.038;8.710;2023-12-22T01:03:05;4.45;;;0.80;;
10122;SDS011;5101;49.038;8.710;2023-12-22T01:05:30;2.70;;;0.90;;
10122;SDS011;5101;49.038;8.710;2023-12-22T01:07:55;2.28;;;0.93;;
10122;SDS011;5101;49.038;8.710;2023-12-22T01:10:21;4.45;;;1.05;;
10122;SDS011;5101;49.038;8.710;2023-12-22T01:12:46;3.65;;;0.82;;
10122;SDS011;5101;49.038;8.710;2023-12-22T01:15:12;3.90;;;1.05;;
10122;SDS011;5101;49.038;8.710;2023-12-22T01:17:37;5.05;;;1.05;;
10122;SDS011;5101;49.038;8.710;2023-12-22T01:20:03;2.63;;;0.70;;
10122;SDS011;5101;49.038;8.710;2023-12-22T01:22:29;4.78;;;1.17;;
10122;SDS011;5101;49.038;8.710;2023-12-22T01:24:57;5.22;;;1.33;;
10122;SDS011;5101;49.038;8.710;2023-12-22T01:27:22;2.83;;;1.00;;
10122;SDS011;5101;49.038;8.710;2023-12-22T01:29:48;3.10;;;1.20;;
10122;SDS011;5101;49.038;8.710;2023-12-22T01:32:13;6.63;;;1.00;;
10122;SDS011;5101;49.038;8.710;2023-12-22T01:34:39;4.75;;;0.75;;
10122;SDS011;5101;49.038;8.710;2023-12-22T01:37:05;7.40;;;1.20;;
10122;SDS011;5101;49.038;8.710;2023-12-22T01:39:30;3.70;;;1.15;;
10122;SDS011;5101;49.038;8.710;2023-12-22T01:41:56;5.63;;;1.02;;
10122;SDS011;5101;49.038;8.710;2023-12-22T01:44:24;4.25;;;0.88;;
10122;SDS011;5101;49.038;8.710;2023-12-22T01:46:50;4.55;;;0.90;;
10122;SDS011;5101;49.038;8.710;2023-12-22T01:49:16;4.93;;;1.38;;
10122;SDS011;5101;49.038;8.710;2023-12-22T01:51:42;2.97;;;0.60;;
10122;SDS011;5101;49.038;8.710;2023-12-22T01:54:08;3.47;;;0.75;;
10122;SDS011;5101;49.038;8.710;2023-12-22T01:56:35;2.33;;;0.85;;
10122;SDS011;5101;49.038;8.710;2023-12-22T01:59:01;2.38;;;0.63;;
10122;SDS011;5101;49.038;8.710;2023-12-22T02:01:27;2.35;;;0.52;;
10122;SDS011;5101;49.038;8.710;2023-12-22T02:03:53;3.92;;;0.70;;
10122;SDS011;5101;49.038;8.710;2023-12-22T02:06:19;1.65;;;0.50;;
10122;SDS011;5101;49.038;8.710;2023-12-22T02:08:49;2.22;;;0.82;;
10122;SDS011;5101;49.038;8.710;2023-12-22T02:11:15;3.00;;;0.55;;
10122;SDS011;5101;49.038;8.710;2023-12-22T02:13:42;2.13;;;0.50;;
10122;SDS011;5101;49.038;8.710;2023-12-22T02:16:11;2.65;;;0.73;;
10122;SDS011;5101;49.038;8.710;2023-12-22T02:18:46;2.58;;;0.70;;
10122;SDS011;5101;49.038;8.710;2023-12-22T02:21:14;2.67;;;0.60;;
10122;SDS011;5101;49.038;8.710;2023-12-22T02:23:40;3.25;;;0.65;;
10122;SDS011;5101;49.038;8.710;2023-12-22T02:26:17;2.57;;;0.60;;
10122;SDS011;5101;49.038;8.710;2023-12-22T02:28:52;3.15;;;0.73;;
10122;SDS011;5101;49.038;8.710;2023-12-22T02:31:33;3.83;;;0.80;;
10122;SDS011;5101;49.038;8.710;2023-12-22T02:34:03;3.60;;;0.65;;
10122;SDS011;5101;49.038;8.710;2023-12-22T02:36:32;2.83;;;0.65;;
10122;SDS011;5101;49.038;8.710;2023-12-22T02:39:01;0.77;;;0.30;;
10122;SDS011;5101;49.038;8.710;2023-12-22T02:41:27;3.33;;;0.50;;
10122;SDS011;5101;49.038;8.710;2023-12-22T02:43:53;2.25;;;0.75;;
10122;SDS011;5101;49.038;8.710;2023-12-22T02:46:19;1.70;;;0.60;;
10122;SDS011;5101;49.038;8.710;2023-12-22T02:48:44;1.83;;;0.60;;
10122;SDS011;5101;49.038;8.710;2023-12-22T02:51:09;1.85;;;0.65;;
10122;SDS011;5101;49.038;8.710;2023-12-22T02:53:35;3.85;;;0.80;;
10122;SDS011;5101;49.038;8.710;2023-12-22T02:56:00;4.05;;;1.10;;
10122;SDS011;5101;49.038;8.710;2023-12-22T02:58:27;2.55;;;0.65;;
10122;SDS011;5101;49.038;8.710;2023-12-22T03:00:53;6.45;;;0.85;;
10122;SDS011;5101;49.038;8.710;2023-12-22T03:03:18;4.15;;;0.90;;
10122;SDS011;5101;49.038;8.710;2023-12-22T03:05:44;3.30;;;0.87;;
10122;SDS011;5101;49.038;8.710;2023-12-22T03:08:09;3.75;;;0.93;;
10122;SDS011;5101;49.038;8.710;2023-12-22T03:10:35;3.13;;;0.98;;
10122;SDS011;5101;49.038;8.710;2023-12-22T03:13:00;2.53;;;0.95;;
10122;SDS011;5101;49.038;8.710;2023-12-22T03:15:26;2.65;;;0.80;;
10122;SDS011;5101;49.038;8.710;2023-12-22T03:17:51;2.85;;;1.13;;
10122;SDS011;5101;49.038;8.710;2023-12-22T03:20:17;5.70;;;1.25;;
10122;SDS011;5101;49.038;8.710;2023-12-22T03:22:43;2.38;;;0.77;;
10122;SDS011;5101;49.038;8.710;2023-12-22T03:25:08;2.05;;;0.80;;
10122;SDS011;5101;49.038;8.710;2023-12-22T03:27:34;5.30;;;0.98;;
10122;SDS011;5101;49.038;8.710;2023-12-22T03:29:59;4.43;;;0.90;;
10122;SDS011;5101;49.038;8.710;2023-12-22T03:32:26;3.42;;;0.70;;
10122;SDS011;5101;49.038;8.710;2023-12-22T03:34:52;5.95;;;1.10;;
10122;SDS011;5101;49.038;8.710;2023-12-22T03:37:17;2.85;;;0.63;;
10122;SDS011;5101;49.038;8.710;2023-12-22T03:39:43;4.43;;;1.00;;
10122;SDS011;5101;49.038;8.710;2023-12-22T03:42:08;3.97;;;0.90;;
10122;SDS011;5101;49.038;8.710;2023-12-22T03:44:34;3.33;;;0.93;;
10122;SDS011;5101;49.038;8.710;2023-12-22T03:46:59;5.97;;;0.82;;
10122;SDS011;5101;49.038;8.710;2023-12-22T03:49:25;5.93;;;1.15;;
10122;SDS011;5101;49.038;8.710;2023-12-22T03:51:50;2.75;;;1.10;;
10122;SDS011;5101;49.038;8.710;2023-12-22T03:54:16;3.20;;;1.10;;
10122;SDS011;5101;49.038;8.710;2023-12-22T03:56:42;3.20;;;1.00;;
10122;SDS011;5101;49.038;8.710;2023-12-22T03:59:07;2.63;;;0.80;;
10122;SDS011;5101;49.038;8.710;2023-12-22T04:01:33;1.92;;;0.80;;
10122;SDS011;5101;49.038;8.710;2023-12-22T04:03:59;3.63;;;0.90;;
10122;SDS011;5101;49.038;8.710;2023-12-22T04:06:24;3.30;;;0.40;;
10122;SDS011;5101;49.038;8.710;2023-12-22T04:08:50;2.15;;;0.70;;
10122;SDS011;5101;49.038;8.710;2023-12-22T04:11:15;5.75;;;0.90;;
10122;SDS011;5101;49.038;8.710;2023-12-22T04:13:41;4.50;;;0.90;;
10122;SDS011;5101;49.038;8.710;2023-12-22T04:16:06;3.88;;;0.85;;
10122;SDS011;5101;49.038;8.710;2023-12-22T04:18:32;4.00;;;0.90;;
10122;SDS011;5101;49.038;8.710;2023-12-22T04:20:58;3.80;;;0.90;;
10122;SDS011;5101;49.038;8.710;2023-12-22T04:23:23;3.53;;;0.77;;
10122;SDS011;5101;49.038;8.710;2023-12-22T04:25:49;4.30;;;0.93;;
10122;SDS011;5101;49.038;8.710;2023-12-22T04:28:15;6.05;;;1.40;;
10122;SDS011;5101;49.038;8.710;2023-12-22T04:30:41;5.05;;;1.15;;
10122;SDS011;5101;49.038;8.710;2023-12-22T04:33:06;6.13;;;1.40;;
10122;SDS011;5101;49.038;8.710;2023-12-22T04:35:32;5.57;;;1.23;;
10122;SDS011;5101;49.038;8.710;2023-12-22T04:37:57;1.88;;;0.68;;
10122;SDS011;5101;49.038;8.710;2023-12-22T04:40:23;3.70;;;0.90;;
10122;SDS011;5101;49.038;8.710;2023-12-22T04:42:48;4.20;;;1.20;;
10122;SDS011;5101;49.038;8.710;2023-12-22T04:45:14;6.22;;;1.20;;
10122;SDS011;5101;49.038;8.710;2023-12-22T04:47:40;5.63;;;1.23;;
10122;SDS011;5101;49.038;8.710;2023-12-22T04:50:05;4.82;;;1.20;;
10122;SDS011;5101;49.038;8.710;2023-12-22T04:52:31;4.78;;;1.20;;
10122;SDS011;5101;49.038;8.710;2023-12-22T04:54:56;2.35;;;0.85;;
10122;SDS011;5101;49.038;8.710;2023-12-22T04:57:22;5.23;;;1.20;;
10122;SDS011;5101;49.038;8.710;2023-12-22T04:59:47;3.72;;;0.90;;
10122;SDS011;5101;49.038;8.710;2023-12-22T05:02:13;2.80;;;1.10;;
10122;SDS011;5101;49.038;8.710;2023-12-22T05:04:38;2.87;;;0.90;;
10122;SDS011;5101;49.038;8.710;2023-12-22T05:07:04;2.97;;;0.70;;
10122;SDS011;5101;49.038;8.710;2023-12-22T05:09:32;4.05;;;0.90;;
10122;SDS011;5101;49.038;8.710;2023-12-22T05:11:58;6.15;;;1.35;;
10122;SDS011;5101;49.038;8.710;2023-12-22T05:14:24;3.80;;;1.00;;
10122;SDS011;5101;49.038;8.710;2023-12-22T05:16:49;4.68;;;0.90;;
10122;SDS011;5101;49.038;8.710;2023-12-22T05:19:15;4.13;;;1.10;;
10122;SDS011;5101;49.038;8.710;2023-12-22T05:21:41;2.33;;;0.98;;
10122;SDS011;5101;49.038;8.710;2023-12-22T05:24:06;6.25;;;1.45;;
10122;SDS011;5101;49.038;8.710;2023-12-22T05:26:32;4.55;;;1.13;;
10122;SDS011;5101;49.038;8.710;2023-12-22T05:28:57;5.30;;;1.17;;
10122;SDS011;5101;49.038;8.710;2023-12-22T05:31:23;4.18;;;1.15;;
10122;SDS011;5101;49.038;8.710;2023-12-22T05:33:48;7.25;;;1.90;;
10122;SDS011;5101;49.038;8.710;2023-12-22T05:36:14;7.40;;;1.55;;
10122;SDS011;5101;49.038;8.710;2023-12-22T05:38:39;6.22;;;1.00;;
10122;SDS011;5101;49.038;8.710;2023-12-22T05:41:05;7.23;;;1.93;;
10122;SDS011;5101;49.038;8.710;2023-12-22T05:43:31;9.05;;;1.80;;
10122;SDS011;5101;49.038;8.710;2023-12-22T05:45:58;7.75;;;1.95;;
10122;SDS011;5101;49.038;8.710;2023-12-22T05:48:24;6.72;;;1.42;;
10122;SDS011;5101;49.038;8.710;2023-12-22T05:50:50;9.02;;;1.40;;
10122;SDS011;5101;49.038;8.710;2023-12-22T05:53:15;6.00;;;1.35;;
10122;SDS011;5101;49.038;8.710;2023-12-22T05:55:40;10.63;;;1.88;;
10122;SDS011;5101;49.038;8.710;2023-12-22T05:58:06;10.25;;;2.08;;
10122;SDS011;5101;49.038;8.710;2023-12-22T06:00:31;7.17;;;1.70;;
10122;SDS011;5101;49.038;8.710;2023-12-22T06:02:57;8.60;;;1.35;;
10122;SDS011;5101;49.038;8.710;2023-12-22T06:05:22;10.45;;;1.60;;
10122;SDS011;5101;49.038;8.710;2023-12-22T06:07:48;5.78;;;1.30;;
10122;SDS011;5101;49.038;8.710;2023-12-22T06:10:14;8.20;;;1.65;;
10122;SDS011;5101;49.038;8.710;2023-12-22T06:12:39;4.80;;;1.20;;
10122;SDS011;5101;49.038;8.710;2023-12-22T06:15:05;6.82;;;2.00;;
10122;SDS011;5101;49.038;8.710;2023-12-22T06:17:31;6.32;;;1.75;;
10122;SDS011;5101;49.038;8.710;2023-12-22T06:19:56;6.13;;;1.45;;
10122;SDS011;5101;49.038;8.710;2023-12-22T06:22:22;5.10;;;1.30;;
10122;SDS011;5101;49.038;8.710;2023-12-22T06:24:48;6.95;;;1.52;;
10122;SDS011;5101;49.038;8.710;2023-12-22T06:27:14;6.63;;;1.38;;
10122;SDS011;5101;49.038;8.710;2023-12-22T06:29:39;6.57;;;1.38;;
10122;SDS011;5101;49.038;8.710;2023-12-22T06:32:05;9.50;;;1.85;;
10122;SDS011;5101;49.038;8.710;2023-12-22T06:34:31;5.40;;;1.42;;
10122;SDS011;5101;49.038;8.710;2023-12-22T06:36:57;6.20;;;1.30;;
10122;SDS011;5101;49.038;8.710;2023-12-22T06:39:22;4.13;;;1.15;;
10122;SDS011;5101;49.038;8.710;2023-12-22T06:41:48;8.07;;;1.10;;
10122;SDS011;5101;49.038;8.710;2023-12-22T06:44:13;4.60;;;1.10;;
10122;SDS011;5101;49.038;8.710;2023-12-22T06:46:39;6.38;;;1.20;;
10122;SDS011;5101;49.038;8.710;2023-12-22T06:49:04;7.45;;;1.70;;
10122;SDS011;5101;49.038;8.710;2023-12-22T06:51:30;7.93;;;2.10;;
10122;SDS011;5101;49.038;8.710;2023-12-22T06:53:57;5.38;;;1.48;;
10122;SDS011;5101;49.038;8.710;2023-12-22T06:56:25;5.93;;;1.27;;
10122;SDS011;5101;49.038;8.710;2023-12-22T06:58:52;7.03;;;1.83;;
10122;SDS011;5101;49.038;8.710;2023-12-22T07:01:22;6.85;;;1.60;;
10122;SDS011;5101;49.038;8.710;2023-12-22T07:04:01;6.93;;;1.38;;
10122;SDS011;5101;49.038;8.710;2023-12-22T07:06:29;4.50;;;1.40;;
10122;SDS011;5101;49.038;8.710;2023-12-22T07:09:41;7.65;;;1.70;;
10122;SDS011;5101;49.038;8.710;2023-12-22T07:11:45;6.30;;;1.17;;
10122;SDS011;5101;49.038;8.710;2023-12-22T07:14:12;5.60;;;1.55;;
10122;SDS011;5101;49.038;8.710;2023-12-22T07:16:38;7.47;;;1.30;;
10122;SDS011;5101;49.038;8.710;2023-12-22T07:19:04;6.95;;;1.60;;
10122;SDS011;5101;49.038;8.710;2023-12-22T07:21:30;6.55;;;1.77;;
10122;SDS011;5101;49.038;8.710;2023-12-22T07:23:56;7.13;;;1.48;;
10122;SDS011;5101;49.038;8.710;2023-12-22T07:26:23;12.50;;;2.55;;
10122;SDS011;5101;49.038;8.710;2023-12-22T07:28:49;12.48;;;2.65;;
10122;SDS011;5101;49.038;8.710;2023-12-22T07:31:15;9.18;;;1.80;;
10122;SDS011;5101;49.038;8.710;2023-12-22T07:33:40;13.55;;;2.35;;
10122;SDS011;5101;49.038;8.710;2023-12-22T07:36:06;8.68;;;2.05;;
10122;SDS011;5101;49.038;8.710;2023-12-22T07:38:32;9.02;;;1.88;;
10122;SDS011;5101;49.038;8.710;2023-12-22T07:40:58;9.68;;;2.10;;
10122;SDS011;5101;49.038;8.710;2023-12-22T07:43:23;9.15;;;2.00;;
10122;SDS011;5101;49.038;8.710;2023-12-22T07:45:49;9.13;;;2.13;;
10122;SDS011;5101;49.038;8.710;2023-12-22T07:48:16;11.13;;;2.40;;
10122;SDS011;5101;49.038;8.710;2023-12-22T07:50:44;8.95;;;1.95;;
10122;SDS011;5101;49.038;8.710;2023-12-22T07:53:10;7.22;;;1.88;;
10122;SDS011;5101;49.038;8.710;2023-12-22T07:55:36;13.20;;;2.30;;
10122;SDS011;5101;49.038;8.710;2023-12-22T07:58:03;11.55;;;2.45;;
10122;SDS011;5101;49.038;8.710;2023-12-22T08:00:32;10.00;;;1.73;;
10122;SDS011;5101;49.038;8.710;2023-12-22T08:02:58;13.68;;;2.13;;
10122;SDS011;5101;49.038;8.710;2023-12-22T08:05:24;12.38;;;2.13;;
10122;SDS011;5101;49.038;8.710;2023-12-22T08:07:50;12.38;;;2.50;;
10122;SDS011;5101;49.038;8.710;2023-12-22T08:10:16;13.33;;;2.80;;
10122;SDS011;5101;49.038;8.710;2023-12-22T08:12:41;11.05;;;2.50;;
10122;SDS011;5101;49.038;8.710;2023-12-22T08:15:07;9.77;;;2.47;;
10122;SDS011;5101;49.038;8.710;2023-12-22T08:17:35;11.15;;;2.67;;
10122;SDS011;5101;49.038;8.710;2023-12-22T08:20:01;11.05;;;2.20;;
10122;SDS011;5101;49.038;8.710;2023-12-22T08:22:27;10.68;;;2.47;;
10122;SDS011;5101;49.038;8.710;2023-12-22T08:24:53;10.85;;;2.45;;
10122;SDS011;5101;49.038;8.710;2023-12-22T08:27:18;11.38;;;2.70;;
10122;SDS011;5101;49.038;8.710;2023-12-22T08:29:44;12.50;;;2.58;;
10122;SDS011;5101;49.038;8.710;2023-12-22T08:32:09;14.70;;;2.75;;
10122;SDS011;5101;49.038;8.710;2023-12-22T08:34:35;15.82;;;2.45;;
10122;SDS011;5101;49.038;8.710;2023-12-22T08:37:00;12.93;;;2.80;;
10122;SDS011;5101;49.038;8.710;2023-12-22T08:39:26;14.50;;;2.90;;
10122;SDS011;5101;49.038;8.710;2023-12-22T08:41:51;13.55;;;3.08;;
10122;SDS011;5101;49.038;8.710;2023-12-22T08:44:18;13.70;;;2.70;;
10122;SDS011;5101;49.038;8.710;2023-12-22T08:46:43;16.08;;;3.17;;
10122;SDS011;5101;49.038;8.710;2023-12-22T08:49:09;18.80;;;3.13;;
10122;SDS011;5101;49.038;8.710;2023-12-22T08:51:34;14.15;;;2.47;;
10122;SDS011;5101;49.038;8.710;2023-12-22T08:54:00;13.80;;;2.60;;
10122;SDS011;5101;49.038;8.710;2023-12-22T08:56:25;14.80;;;3.03;;
10122;SDS011;5101;49.038;8.710;2023-12-22T08:58:52;15.90;;;2.80;;
10122;SDS011;5101;49.038;8.710;2023-12-22T09:01:19;12.95;;;2.83;;
10122;SDS011;5101;49.038;8.710;2023-12-22T09:03:46;10.32;;;2.60;;
10122;SDS011;5101;49.038;8.710;2023-12-22T09:06:14;13.68;;;2.92;;
10122;SDS011;5101;49.038;8.710;2023-12-22T09:08:41;14.68;;;2.97;;
10122;SDS011;5101;49.038;8.710;2023-12-22T09:11:07;13.73;;;3.30;;
10122;SDS011;5101;49.038;8.710;2023-12-22T09:13:33;13.98;;;2.53;;
10122;SDS011;5101;49.038;8.710;2023-12-22T09:16:00;16.95;;;3.00;;
10122;SDS011;5101;49.038;8.710;2023-12-22T09:18:27;14.85;;;2.97;;
10122;SDS011;5101;49.038;8.710;2023-12-22T09:20:52;9.90;;;2.50;;
10122;SDS011;5101;49.038;8.710;2023-12-22T09:23:18;16.48;;;3.22;;
10122;SDS011;5101;49.038;8.710;2023-12-22T09:25:44;12.75;;;2.70;;
10122;SDS011;5101;49.038;8.710;2023-12-22T09:28:10;13.90;;;3.17;;
10122;SDS011;5101;49.038;8.710;2023-12-22T09:30:36;13.35;;;2.25;;
10122;SDS011;5101;49.038;8.710;2023-12-22T09:33:01;14.68;;;2.95;;
10122;SDS011;5101;49.038;8.710;2023-12-22T09:35:27;12.30;;;2.85;;
10122;SDS011;5101;49.038;8.710;2023-12-22T09:37:53;11.40;;;2.67;;
10122;SDS011;5101;49.038;8.710;2023-12-22T09:40:18;12.98;;;2.80;;
10122;SDS011;5101;49.038;8.710;2023-12-22T09:42:44;14.85;;;2.78;;
10122;SDS011;5101;49.038;8.710;2023-12-22T09:45:11;12.77;;;2.80;;
10122;SDS011;5101;49.038;8.710;2023-12-22T09:47:43;12.95;;;2.92;;
10122;SDS011;5101;49.038;8.710;2023-12-22T09:50:09;11.60;;;2.63;;
10122;SDS011;5101;49.038;8.710;2023-12-22T09:52:35;10.45;;;2.70;;
10122;SDS011;5101;49.038;8.710;2023-12-22T09:55:02;13.40;;;3.17;;
10122;SDS011;5101;49.038;8.710;2023-12-22T09:57:29;9.48;;;2.00;;
10122;SDS011;5101;49.038;8.710;2023-12-22T09:59:55;12.32;;;2.65;;
10122;SDS011;5101;49.038;8.710;2023-12-22T10:02:24;11.48;;;2.70;;
10122;SDS011;5101;49.038;8.710;2023-12-22T10:04:51;15.52;;;2.83;;
10122;SDS011;5101;49.038;8.710;2023-12-22T10:07:17;14.00;;;2.90;;
10122;SDS011;5101;49.038;8.710;2023-12-22T10:09:43;12.52;;;2.88;;
10122;SDS011;5101;49.038;8.710;2023-12-22T10:12:12;17.73;;;3.25;;
10122;SDS011;5101;49.038;8.710;2023-12-22T10:14:39;13.65;;;2.95;;
10122;SDS011;5101;49.038;8.710;2023-12-22T10:17:05;8.68;;;2.40;;
10122;SDS011;5101;49.038;8.710;2023-12-22T10:19:31;11.70;;;2.80;;
10122;SDS011;5101;49.038;8.710;2023-12-22T10:21:56;13.77;;;3.00;;
10122;SDS011;5101;49.038;8.710;2023-12-22T10:27:07;13.00;;;2.63;;
10122;SDS011;5101;49.038;8.710;2023-12-22T10:29:34;15.18;;;2.70;;
10122;SDS011;5101;49.038;8.710;2023-12-22T10:32:03;12.38;;;3.20;;
10122;SDS011;5101;49.038;8.710;2023-12-22T10:34:30;16.67;;;3.35;;
10122;SDS011;5101;49.038;8.710;2023-12-22T10:36:56;9.77;;;2.22;;
10122;SDS011;5101;49.038;8.710;2023-12-22T10:39:22;13.18;;;2.70;;
10122;SDS011;5101;49.038;8.710;2023-12-22T10:41:48;13.52;;;3.20;;
10122;SDS011;5101;49.038;8.710;2023-12-22T10:44:16;11.93;;;2.38;;
10122;SDS011;5101;49.038;8.710;2023-12-22T10:46:42;12.30;;;2.45;;
10122;SDS011;5101;49.038;8.710;2023-12-22T10:49:08;10.77;;;2.60;;
10122;SDS011;5101;49.038;8.710;2023-12-22T10:51:34;11.77;;;2.38;;
10122;SDS011;5101;49.038;8.710;2023-12-22T10:53:59;13.90;;;3.30;;
10122;SDS011;5101;49.038;8.710;2023-12-22T10:56:25;11.95;;;2.47;;
10122;SDS011;5101;49.038;8.710;2023-12-22T10:58:51;11.57;;;3.22;;
10122;SDS011;5101;49.038;8.710;2023-12-22T11:01:17;13.07;;;2.55;;
10122;SDS011;5101;49.038;8.710;2023-12-22T11:03:48;15.23;;;3.20;;
10122;SDS011;5101;49.038;8.710;2023-12-22T11:06:16;21.33;;;3.17;;
10122;SDS011;5101;49.038;8.710;2023-12-22T11:08:42;13.35;;;3.00;;
10122;SDS011;5101;49.038;8.710;2023-12-22T11:11:13;13.85;;;3.60;;
10122;SDS011;5101;49.038;8.710;2023-12-22T11:13:41;14.18;;;2.85;;
10122;SDS011;5101;49.038;8.710;2023-12-22T11:16:09;11.45;;;3.35;;
10122;SDS011;5101;49.038;8.710;2023-12-22T11:18:35;13.23;;;3.70;;
10122;SDS011;5101;49.038;8.710;2023-12-22T11:21:01;14.48;;;3.05;;
10122;SDS011;5101;49.038;8.710;2023-12-22T11:23:30;10.90;;;3.03;;
10122;SDS011;5101;49.038;8.710;2023-12-22T11:25:57;11.88;;;2.92;;
10122;SDS011;5101;49.038;8.710;2023-12-22T11:28:26;7.97;;;2.38;;
10122;SDS011;5101;49.038;8.710;2023-12-22T11:30:51;12.75;;;2.55;;
10122;SDS011;5101;49.038;8.710;2023-12-22T11:33:19;8.73;;;2.67;;
10122;SDS011;5101;49.038;8.710;2023-12-22T11:35:45;9.68;;;2.22;;
10122;SDS011;5101;49.038;8.710;2023-12-22T11:38:11;7.93;;;1.77;;
10122;SDS011;5101;49.038;8.710;2023-12-22T11:40:39;10.10;;;1.90;;
10122;SDS011;5101;49.038;8.710;2023-12-22T11:43:05;9.80;;;2.05;;
10122;SDS011;5101;49.038;8.710;2023-12-22T11:45:32;8.38;;;2.38;;
10122;SDS011;5101;49.038;8.710;2023-12-22T11:48:04;7.97;;;1.88;;
10122;SDS011;5101;49.038;8.710;2023-12-22T11:50:34;10.18;;;2.20;;
10122;SDS011;5101;49.038;8.710;2023-12-22T11:55:57;7.32;;;1.40;;
10122;SDS011;5101;49.038;8.710;2023-12-22T11:58:42;9.48;;;1.85;;
10122;SDS011;5101;49.038;8.710;2023-12-22T12:01:16;6.20;;;2.00;;
10122;SDS011;5101;49.038;8.710;2023-12-22T12:06:22;6.78;;;1.50;;
10122;SDS011;5101;49.038;8.710;2023-12-22T12:08:56;4.47;;;1.02;;
10122;SDS011;5101;49.038;8.710;2023-12-22T12:11:23;5.47;;;1.92;;
10122;SDS011;5101;49.038;8.710;2023-12-22T12:14:09;5.72;;;1.35;;
10122;SDS011;5101;49.038;8.710;2023-12-22T12:16:38;6.45;;;1.50;;
10122;SDS011;5101;49.038;8.710;2023-12-22T12:19:07;3.92;;;1.25;;
10122;SDS011;5101;49.038;8.710;2023-12-22T12:21:33;3.67;;;0.80;;
10122;SDS011;5101;49.038;8.710;2023-12-22T12:23:59;1.55;;;0.75;;
10122;SDS011;5101;49.038;8.710;2023-12-22T12:26:24;2.97;;;1.20;;
10122;SDS011;5101;49.038;8.710;2023-12-22T12:28:51;3.72;;;1.10;;
10122;SDS011;5101;49.038;8.710;2023-12-22T12:31:17;4.20;;;1.13;;
10122;SDS011;5101;49.038;8.710;2023-12-22T12:33:42;9.10;;;6.77;;
10122;SDS011;5101;49.038;8.710;2023-12-22T12:36:10;3.00;;;1.00;;
10122;SDS011;5101;49.038;8.710;2023-12-22T12:38:40;4.18;;;1.42;;
10122;SDS011;5101;49.038;8.710;2023-12-22T12:41:16;5.70;;;1.58;;
10122;SDS011;5101;49.038;8.710;2023-12-22T12:43:49;3.83;;;2.50;;
10122;SDS011;5101;49.038;8.710;2023-12-22T12:46:16;5.45;;;3.38;;
10122;SDS011;5101;49.038;8.710;2023-12-22T12:48:41;3.53;;;1.27;;
10122;SDS011;5101;49.038;8.710;2023-12-22T12:51:07;4.03;;;0.90;;
10122;SDS011;5101;49.038;8.710;2023-12-22T12:53:33;2.47;;;0.80;;
10122;SDS011;5101;49.038;8.710;2023-12-22T12:56:01;2.65;;;0.70;;
10122;SDS011;5101;49.038;8.710;2023-12-22T12:58:27;2.38;;;0.88;;
10122;SDS011;5101;49.038;8.710;2023-12-22T13:01:09;4.07;;;1.10;;
10122;SDS011;5101;49.038;8.710;2023-12-22T13:03:53;3.53;;;1.00;;
10122;SDS011;5101;49.038;8.710;2023-12-22T13:06:19;3.80;;;1.10;;
10122;SDS011;5101;49.038;8.710;2023-12-22T13:08:51;1.98;;;0.88;;
10122;SDS011;5101;49.038;8.710;2023-12-22T13:11:24;2.17;;;1.08;;
10122;SDS011;5101;49.038;8.710;2023-12-22T13:13:51;2.90;;;0.90;;
10122;SDS011;5101;49.038;8.710;2023-12-22T13:16:20;4.63;;;0.80;;
10122;SDS011;5101;49.038;8.710;2023-12-22T13:18:50;4.15;;;0.85;;
10122;SDS011;5101;49.038;8.710;2023-12-22T13:21:16;2.15;;;0.68;;
10122;SDS011;5101;49.038;8.710;2023-12-22T13:23:42;2.60;;;1.00;;
10122;SDS011;5101;49.038;8.710;2023-12-22T13:26:17;2.35;;;0.57;;
10122;SDS011;5101;49.038;8.710;2023-12-22T13:28:44;0.57;;;0.57;;
10122;SDS011;5101;49.038;8.710;2023-12-22T13:31:12;1.92;;;0.77;;
10122;SDS011;5101;49.038;8.710;2023-12-22T13:33:39;2.35;;;0.60;;
10122;SDS011;5101;49.038;8.710;2023-12-22T13:36:05;0.98;;;0.60;;
10122;SDS011;5101;49.038;8.710;2023-12-22T13:38:31;1.38;;;0.60;;
10122;SDS011;5101;49.038;8.710;2023-12-22T13:40:57;3.38;;;0.73;;
10122;SDS011;5101;49.038;8.710;2023-12-22T13:43:27;2.03;;;0.90;;
10122;SDS011;5101;49.038;8.710;2023-12-22T13:45:55;1.95;;;1.52;;
10122;SDS011;5101;49.038;8.710;2023-12-22T13:48:22;35.42;;;21.45;;
10122;SDS011;5101;49.038;8.710;2023-12-22T13:50:58;6.60;;;4.10;;
10122;SDS011;5101;49.038;8.710;2023-12-22T13:53:24;9.77;;;7.55;;
10122;SDS011;5101;49.038;8.710;2023-12-22T13:55:56;3.55;;;2.42;;
10122;SDS011;5101;49.038;8.710;2023-12-22T13:58:22;2.05;;;1.35;;
10122;SDS011;5101;49.038;8.710;2023-12-22T14:00:49;3.42;;;1.20;;
10122;SDS011;5101;49.038;8.710;2023-12-22T14:03:15;3.13;;;0.60;;
10122;SDS011;5101;49.038;8.710;2023-12-22T14:05:47;0.68;;;0.57;;
10122;SDS011;5101;49.038;8.710;2023-12-22T14:08:14;1.65;;;0.60;;
10122;SDS011;5101;49.038;8.710;2023-12-22T14:10:47;1.20;;;0.50;;
10122;SDS011;5101;49.038;8.710;2023-12-22T14:13:16;1.23;;;0.60;;
10122;SDS011;5101;49.038;8.710;2023-12-22T14:15:42;1.48;;;0.63;;
10122;SDS011;5101;49.038;8.710;2023-12-22T14:18:09;1.60;;;0.57;;
10122;SDS011;5101;49.038;8.710;2023-12-22T14:20:35;0.50;;;0.40;;
10122;SDS011;5101;49.038;8.710;2023-12-22T14:23:00;0.45;;;0.40;;
10122;SDS011;5101;49.038;8.710;2023-12-22T14:25:26;1.35;;;0.47;;
10122;SDS011;5101;49.038;8.710;2023-12-22T14:27:52;1.00;;;0.50;;
10122;SDS011;5101;49.038;8.710;2023-12-22T14:30:22;0.40;;;0.40;;
10122;SDS011;5101;49.038;8.710;2023-12-22T14:32:48;0.30;;;0.30;;
10122;SDS011;5101;49.038;8.710;2023-12-22T14:35:13;0.80;;;0.40;;
10122;SDS011;5101;49.038;8.710;2023-12-22T14:37:39;1.35;;;0.40;;
10122;SDS011;5101;49.038;8.710;2023-12-22T14:40:05;0.40;;;0.32;;
10122;SDS011;5101;49.038;8.710;2023-12-22T14:42:31;0.30;;;0.30;;
10122;SDS011;5101;49.038;8.710;2023-12-22T14:44:57;0.70;;;0.45;;
10122;SDS011;5101;49.038;8.710;2023-12-22T14:47:23;0.95;;;0.40;;
10122;SDS011;5101;49.038;8.710;2023-12-22T14:49:48;1.30;;;0.50;;
10122;SDS011;5101;49.038;8.710;2023-12-22T14:52:14;0.85;;;0.40;;
10122;SDS011;5101;49.038;8.710;2023-12-22T14:54:40;1.00;;;0.52;;
10122;SDS011;5101;49.038;8.710;2023-12-22T14:57:05;0.93;;;0.50;;
10122;SDS011;5101;49.038;8.710;2023-12-22T14:59:31;0.63;;;0.30;;
10122;SDS011;5101;49.038;8.710;2023-12-22T15:01:56;2.00;;;0.47;;
10122;SDS011;5101;49.038;8.710;2023-12-22T15:04:22;0.45;;;0.40;;